Arcadia, Texas
Current Conditions -  °F | °C
As of 2:53 PM on Sunday 21 Dec 2014 (Local Time) from KLVJ Reporting Station
Overcast Overcast  
Wind Chill: 61°   Ceiling: 2300
Heat Index: 61°   Visibility: 10mi
Dew Point: 50°   Wind: 8mph
Humidity: 67%   Direction: 140°SE
Pressure: 29.99"   Gusts: NA
Location:  29.3723°N, 95.1328°W
Report Text: KLVJ 212053Z AUTO 14007KT 10SM OVC023 16/10 A2999 RMK AO2 SLP153 T01610100 56034
Loading
Personal Weather Stations






























Interactive Weather Map New forecast layout! Learn more

10-Day Weather Forecast

Advertisements
Track Severe Weather on mobile